Time;durP1;ratioP1;P1;durP2;ratioP2;P2;SDS_P1;SDS_P2;PMS_P1;PMS_P2;Temp;Humidity;BMP_temperature;BMP_pressure;BME280_temperature;BME280_humidity;BME280_pressure;Samples;Min_cycle;Max_cycle;Signal;HPM_P1;HPM_P2
2020/12/11 00:00:29;;;;;;;15.4;10.97;;;3.1;99.9;;;;;;;;;
2020/12/11 00:01:02;;;;;;;15.4;10.97;;;3.1;99.9;;;;;;;;;
2020/12/11 00:02:02;;;;;;;15.77;12;;;3.2;99.9;;;;;;;;;
2020/12/11 00:02:41;;;;;;;16.43;11.53;;;3.2;99.9;;;;;;;;;
2020/12/11 00:03:02;;;;;;;16.43;11.53;;;3.2;99.9;;;;;;;;;
2020/12/11 00:03:12;;;;;;;16.43;11.53;;;3.2;99.9;;;;;;;;;
2020/12/11 00:04:02;;;;;;;14.2;12;;;3.1;99.9;;;;;;;;;
2020/12/11 00:04:14;;;;;;;14.2;12;;;3.1;99.9;;;;;;;;;
2020/12/11 00:05:02;;;;;;;17.77;12.33;;;3.2;99.9;;;;;;;;;
2020/12/11 00:05:15;;;;;;;17.77;12.33;;;3.2;99.9;;;;;;;;;
2020/12/11 00:05:25;;;;;;;17.77;12.33;;;3.2;99.9;;;;;;;;;
2020/12/11 00:06:02;;;;;;;15.27;11.8;;;3.3;99.9;;;;;;;;;
2020/12/11 00:06:16;;;;;;;15.27;11.8;;;3.3;99.9;;;;;;;;;
2020/12/11 00:06:27;;;;;;;15.27;11.8;;;3.3;99.9;;;;;;;;;
2020/12/11 00:07:02;;;;;;;16.2;12.9;;;3.3;99.9;;;;;;;;;
2020/12/11 00:07:13;;;;;;;16.2;12.9;;;3.3;99.9;;;;;;;;;
2020/12/11 00:07:28;;;;;;;16.2;12.9;;;3.3;99.9;;;;;;;;;
2020/12/11 00:07:38;;;;;;;15.53;12.3;;;3.1;99.9;;;;;;;;;
2020/12/11 00:08:02;;;;;;;15.53;12.3;;;3.1;99.9;;;;;;;;;
2020/12/11 00:08:14;;;;;;;15.53;12.3;;;3.1;99.9;;;;;;;;;
2020/12/11 00:08:30;;;;;;;15.53;12.3;;;3.1;99.9;;;;;;;;;
2020/12/11 00:08:40;;;;;;;14.73;11.13;;;3.1;99.9;;;;;;;;;
2020/12/11 00:09:02;;;;;;;14.73;11.13;;;3.1;99.9;;;;;;;;;
2020/12/11 00:09:16;;;;;;;14.73;11.13;;;3.1;99.9;;;;;;;;;
2020/12/11 00:09:26;;;;;;;14.73;11.13;;;3.1;99.9;;;;;;;;;
2020/12/11 00:09:41;;;;;;;13.57;11.03;;;3;99.9;;;;;;;;;
2020/12/11 00:09:51;;;;;;;13.57;11.03;;;3;99.9;;;;;;;;;
2020/12/11 00:10:02;;;;;;;13.57;11.03;;;3;99.9;;;;;;;;;
2020/12/11 00:10:12;;;;;;;13.57;11.03;;;3;99.9;;;;;;;;;
2020/12/11 00:10:28;;;;;;;13.57;11.03;;;3;99.9;;;;;;;;;
2020/12/11 00:10:43;;;;;;;13.53;10.8;;;3.2;99.9;;;;;;;;;
2020/12/11 00:10:53;;;;;;;13.53;10.8;;;3.2;99.9;;;;;;;;;
2020/12/11 00:11:02;;;;;;;13.53;10.8;;;3.2;99.9;;;;;;;;;
2020/12/11 00:11:13;;;;;;;13.53;10.8;;;3.2;99.9;;;;;;;;;
2020/12/11 00:11:29;;;;;;;13.53;10.8;;;3.2;99.9;;;;;;;;;
2020/12/11 00:11:39;;;;;;;13.47;11.37;;;3.2;99.9;;;;;;;;;
2020/12/11 00:11:54;;;;;;;13.47;11.37;;;3.2;99.9;;;;;;;;;
2020/12/11 00:12:02;;;;;;;13.47;11.37;;;3.2;99.9;;;;;;;;;
2020/12/11 00:12:05;;;;;;;13.47;11.37;;;3.2;99.9;;;;;;;;;
2020/12/11 00:12:15;;;;;;;13.47;11.37;;;3.2;99.9;;;;;;;;;
2020/12/11 00:12:25;;;;;;;13.47;11.37;;;3.2;99.9;;;;;;;;;
2020/12/11 00:12:40;;;;;;;15.67;11.87;;;3.2;99.9;;;;;;;;;
2020/12/11 00:12:56;;;;;;;15.67;11.87;;;3.2;99.9;;;;;;;;;
2020/12/11 00:13:02;;;;;;;15.67;11.87;;;3.2;99.9;;;;;;;;;
2020/12/11 00:13:06;;;;;;;15.67;11.87;;;3.2;99.9;;;;;;;;;
2020/12/11 00:13:16;;;;;;;15.67;11.87;;;3.2;99.9;;;;;;;;;
2020/12/11 00:13:26;;;;;;;15.67;11.87;;;3.2;99.9;;;;;;;;;
2020/12/11 00:13:42;;;;;;;13.87;11.4;;;3.2;99.9;;;;;;;;;
2020/12/11 00:13:52;;;;;;;13.87;11.4;;;3.2;99.9;;;;;;;;;
2020/12/11 00:14:02;;;;;;;13.87;11.4;;;3.2;99.9;;;;;;;;;
2020/12/11 00:14:07;;;;;;;13.87;11.4;;;3.2;99.9;;;;;;;;;
2020/12/11 00:14:13;;;;;;;13.87;11.4;;;3.2;99.9;;;;;;;;;
2020/12/11 00:14:28;;;;;;;13.87;11.4;;;3.2;99.9;;;;;;;;;
2020/12/11 00:14:38;;;;;;;14.3;11.63;;;3.2;99.9;;;;;;;;;
2020/12/11 00:14:54;;;;;;;14.3;11.63;;;3.2;99.9;;;;;;;;;
2020/12/11 00:15:01;;;;;;;14.3;11.63;;;3.2;99.9;;;;;;;;;
2020/12/11 00:15:09;;;;;;;14.3;11.63;;;3.2;99.9;;;;;;;;;
2020/12/11 00:15:14;;;;;;;14.3;11.63;;;3.2;99.9;;;;;;;;;
2020/12/11 00:15:29;;;;;;;14.3;11.63;;;3.2;99.9;;;;;;;;;
2020/12/11 00:15:40;;;;;;;14.87;11.13;;;3.2;99.9;;;;;;;;;
2020/12/11 00:16:00;;;;;;;14.87;11.13;;;3.2;99.9;;;;;;;;;
2020/12/11 00:16:02;;;;;;;14.87;11.13;;;3.2;99.9;;;;;;;;;
2020/12/11 00:16:05;;;;;;;14.87;11.13;;;3.2;99.9;;;;;;;;;
2020/12/11 00:16:15;;;;;;;14.87;11.13;;;3.2;99.9;;;;;;;;;
2020/12/11 00:16:26;;;;;;;14.87;11.13;;;3.2;99.9;;;;;;;;;
2020/12/11 00:16:41;;;;;;;16.07;12.13;;;3.2;99.9;;;;;;;;;
2020/12/11 00:16:51;;;;;;;16.07;12.13;;;3.2;99.9;;;;;;;;;
2020/12/11 00:17:02;;;;;;;16.07;12.13;;;3.2;99.9;;;;;;;;;
2020/12/11 00:17:07;;;;;;;16.07;12.13;;;3.2;99.9;;;;;;;;;
2020/12/11 00:17:17;;;;;;;16.07;12.13;;;3.2;99.9;;;;;;;;;
2020/12/11 00:17:28;;;;;;;16.07;12.13;;;3.2;99.9;;;;;;;;;
2020/12/11 00:17:42;;;;;;;15.47;11.47;;;3.3;99.9;;;;;;;;;
2020/12/11 00:17:53;;;;;;;15.47;11.47;;;3.3;99.9;;;;;;;;;
2020/12/11 00:18:02;;;;;;;15.47;11.47;;;3.3;99.9;;;;;;;;;
2020/12/11 00:18:13;;;;;;;15.47;11.47;;;3.3;99.9;;;;;;;;;
2020/12/11 00:18:13;;;;;;;15.47;11.47;;;3.3;99.9;;;;;;;;;
2020/12/11 00:18:29;;;;;;;15.47;11.47;;;3.3;99.9;;;;;;;;;
2020/12/11 00:18:39;;;;;;;12.8;10.67;;;3.4;99.9;;;;;;;;;
2020/12/11 00:18:54;;;;;;;12.8;10.67;;;3.4;99.9;;;;;;;;;
2020/12/11 00:19:02;;;;;;;12.8;10.67;;;3.4;99.9;;;;;;;;;
2020/12/11 00:19:04;;;;;;;12.8;10.67;;;3.4;99.9;;;;;;;;;
2020/12/11 00:19:15;;;;;;;12.8;10.67;;;3.4;99.9;;;;;;;;;
2020/12/11 00:19:30;;;;;;;12.8;10.67;;;3.4;99.9;;;;;;;;;
2020/12/11 00:19:40;;;;;;;13.73;11.03;;;3.6;99.9;;;;;;;;;
2020/12/11 00:19:56;;;;;;;13.73;11.03;;;3.6;99.9;;;;;;;;;
2020/12/11 00:20:01;;;;;;;13.73;11.03;;;3.6;99.9;;;;;;;;;
2020/12/11 00:20:06;;;;;;;13.73;11.03;;;3.6;99.9;;;;;;;;;
2020/12/11 00:20:16;;;;;;;13.73;11.03;;;3.6;99.9;;;;;;;;;
2020/12/11 00:20:26;;;;;;;13.73;11.03;;;3.6;99.9;;;;;;;;;
2020/12/11 00:20:42;;;;;;;12.93;11;;;3.6;99.9;;;;;;;;;
2020/12/11 00:20:52;;;;;;;12.93;11;;;3.6;99.9;;;;;;;;;
2020/12/11 00:21:02;;;;;;;12.93;11;;;3.6;99.9;;;;;;;;;
2020/12/11 00:21:07;;;;;;;12.93;11;;;3.6;99.9;;;;;;;;;
2020/12/11 00:21:12;;;;;;;12.93;11;;;3.6;99.9;;;;;;;;;
2020/12/11 00:21:28;;;;;;;12.93;11;;;3.6;99.9;;;;;;;;;
2020/12/11 00:21:43;;;;;;;14.5;11.83;;;3.7;99.9;;;;;;;;;
2020/12/11 00:21:53;;;;;;;14.5;11.83;;;3.7;99.9;;;;;;;;;
2020/12/11 00:22:02;;;;;;;14.5;11.83;;;3.7;99.9;;;;;;;;;
2020/12/11 00:22:14;;;;;;;14.5;11.83;;;3.7;99.9;;;;;;;;;
2020/12/11 00:22:14;;;;;;;14.5;11.83;;;3.7;99.9;;;;;;;;;
2020/12/11 00:22:29;;;;;;;14.5;11.83;;;3.7;99.9;;;;;;;;;
2020/12/11 00:22:39;;;;;;;14.47;11.27;;;3.7;99.9;;;;;;;;;
2020/12/11 00:22:55;;;;;;;14.47;11.27;;;3.7;99.9;;;;;;;;;
2020/12/11 00:23:04;;;;;;;14.47;11.27;;;3.7;99.9;;;;;;;;;
2020/12/11 00:23:05;;;;;;;14.47;11.27;;;3.7;99.9;;;;;;;;;
2020/12/11 00:23:15;;;;;;;14.47;11.27;;;3.7;99.9;;;;;;;;;
2020/12/11 00:23:26;;;;;;;14.47;11.27;;;3.7;99.9;;;;;;;;;
2020/12/11 00:23:41;;;;;;;15.33;12.27;;;3.6;99.9;;;;;;;;;
2020/12/11 00:23:56;;;;;;;15.33;12.27;;;3.6;99.9;;;;;;;;;
2020/12/11 00:24:02;;;;;;;15.33;12.27;;;3.6;99.9;;;;;;;;;
2020/12/11 00:24:06;;;;;;;15.33;12.27;;;3.6;99.9;;;;;;;;;
2020/12/11 00:24:17;;;;;;;15.33;12.27;;;3.6;99.9;;;;;;;;;
2020/12/11 00:24:27;;;;;;;15.33;12.27;;;3.6;99.9;;;;;;;;;
2020/12/11 00:24:42;;;;;;;14.5;10.93;;;3.6;99.9;;;;;;;;;
2020/12/11 00:24:52;;;;;;;14.5;10.93;;;3.6;99.9;;;;;;;;;
2020/12/11 00:25:02;;;;;;;14.5;10.93;;;3.6;99.9;;;;;;;;;
2020/12/11 00:25:08;;;;;;;14.5;10.93;;;3.6;99.9;;;;;;;;;
2020/12/11 00:25:18;;;;;;;14.5;10.93;;;3.6;99.9;;;;;;;;;
2020/12/11 00:25:31;;;;;;;14.5;10.93;;;3.6;99.9;;;;;;;;;
2020/12/11 00:25:39;;;;;;;15.2;11.63;;;3.7;99.9;;;;;;;;;
2020/12/11 00:25:58;;;;;;;15.2;11.63;;;3.7;99.9;;;;;;;;;
2020/12/11 00:26:02;;;;;;;15.2;11.63;;;3.7;99.9;;;;;;;;;
2020/12/11 00:26:09;;;;;;;15.2;11.63;;;3.7;99.9;;;;;;;;;
2020/12/11 00:26:14;;;;;;;15.2;11.63;;;3.7;99.9;;;;;;;;;
2020/12/11 00:26:30;;;;;;;15.2;11.63;;;3.7;99.9;;;;;;;;;
2020/12/11 00:26:40;;;;;;;15.23;12.23;;;3.7;99.9;;;;;;;;;
2020/12/11 00:26:55;;;;;;;15.23;12.23;;;3.7;99.9;;;;;;;;;
2020/12/11 00:27:02;;;;;;;15.23;12.23;;;3.7;99.9;;;;;;;;;
2020/12/11 00:27:06;;;;;;;15.23;12.23;;;3.7;99.9;;;;;;;;;
2020/12/11 00:27:16;;;;;;;15.23;12.23;;;3.7;99.9;;;;;;;;;
2020/12/11 00:27:31;;;;;;;15.23;12.23;;;3.7;99.9;;;;;;;;;
2020/12/11 00:27:42;;;;;;;14.87;11.77;;;3.5;99.9;;;;;;;;;
2020/12/11 00:27:52;;;;;;;14.87;11.77;;;3.5;99.9;;;;;;;;;
2020/12/11 00:28:02;;;;;;;14.87;11.77;;;3.5;99.9;;;;;;;;;
2020/12/11 00:28:12;;;;;;;14.87;11.77;;;3.5;99.9;;;;;;;;;
2020/12/11 00:28:12;;;;;;;14.87;11.77;;;3.5;99.9;;;;;;;;;
2020/12/11 00:28:28;;;;;;;14.87;11.77;;;3.5;99.9;;;;;;;;;
2020/12/11 00:28:43;;;;;;;16.43;12.2;;;3.5;99.9;;;;;;;;;
2020/12/11 00:28:53;;;;;;;16.43;12.2;;;3.5;99.9;;;;;;;;;
2020/12/11 00:29:02;;;;;;;16.43;12.2;;;3.5;99.9;;;;;;;;;
2020/12/11 00:29:09;;;;;;;16.43;12.2;;;3.5;99.9;;;;;;;;;
2020/12/11 00:29:14;;;;;;;16.43;12.2;;;3.5;99.9;;;;;;;;;
2020/12/11 00:29:29;;;;;;;16.43;12.2;;;3.5;99.9;;;;;;;;;
2020/12/11 00:29:44;;;;;;;15.43;11.73;;;3.5;99.9;;;;;;;;;
2020/12/11 00:29:55;;;;;;;15.43;11.73;;;3.5;99.9;;;;;;;;;
2020/12/11 00:30:01;;;;;;;15.43;11.73;;;3.5;99.9;;;;;;;;;
2020/12/11 00:30:05;;;;;;;15.43;11.73;;;3.5;99.9;;;;;;;;;
2020/12/11 00:30:15;;;;;;;15.43;11.73;;;3.5;99.9;;;;;;;;;
2020/12/11 00:30:25;;;;;;;15.43;11.73;;;3.5;99.9;;;;;;;;;
2020/12/11 00:30:41;;;;;;;14.6;11.2;;;3.5;99.9;;;;;;;;;
2020/12/11 00:30:56;;;;;;;14.6;11.2;;;3.5;99.9;;;;;;;;;
2020/12/11 00:31:02;;;;;;;14.6;11.2;;;3.5;99.9;;;;;;;;;
2020/12/11 00:31:06;;;;;;;14.6;11.2;;;3.5;99.9;;;;;;;;;
2020/12/11 00:31:17;;;;;;;14.6;11.2;;;3.5;99.9;;;;;;;;;
2020/12/11 00:31:27;;;;;;;14.6;11.2;;;3.5;99.9;;;;;;;;;
2020/12/11 00:31:42;;;;;;;13.8;11.7;;;3.4;99.9;;;;;;;;;
2020/12/11 00:31:57;;;;;;;13.8;11.7;;;3.4;99.9;;;;;;;;;
2020/12/11 00:32:02;;;;;;;13.8;11.7;;;3.4;99.9;;;;;;;;;
2020/12/11 00:32:08;;;;;;;13.8;11.7;;;3.4;99.9;;;;;;;;;
2020/12/11 00:32:13;;;;;;;13.8;11.7;;;3.4;99.9;;;;;;;;;
2020/12/11 00:32:28;;;;;;;13.8;11.7;;;3.4;99.9;;;;;;;;;
2020/12/11 00:32:38;;;;;;;13.37;11.23;;;3.4;99.9;;;;;;;;;
2020/12/11 00:32:54;;;;;;;13.37;11.23;;;3.4;99.9;;;;;;;;;
2020/12/11 00:33:02;;;;;;;13.37;11.23;;;3.4;99.9;;;;;;;;;
2020/12/11 00:33:09;;;;;;;13.37;11.23;;;3.4;99.9;;;;;;;;;
2020/12/11 00:33:14;;;;;;;13.37;11.23;;;3.4;99.9;;;;;;;;;
2020/12/11 00:33:35;;;;;;;13.37;11.23;;;3.4;99.9;;;;;;;;;
2020/12/11 00:33:40;;;;;;;13.93;10.87;;;3.5;99.9;;;;;;;;;
2020/12/11 00:33:55;;;;;;;13.93;10.87;;;3.5;99.9;;;;;;;;;
2020/12/11 00:34:02;;;;;;;13.93;10.87;;;3.5;99.9;;;;;;;;;
2020/12/11 00:34:11;;;;;;;13.93;10.87;;;3.5;99.9;;;;;;;;;
2020/12/11 00:34:16;;;;;;;13.93;10.87;;;3.5;99.9;;;;;;;;;
2020/12/11 00:34:26;;;;;;;13.93;10.87;;;3.5;99.9;;;;;;;;;
2020/12/11 00:34:41;;;;;;;14;11.03;;;3.5;99.9;;;;;;;;;
2020/12/11 00:34:52;;;;;;;14;11.03;;;3.5;99.9;;;;;;;;;
2020/12/11 00:35:02;;;;;;;14;11.03;;;3.5;99.9;;;;;;;;;
2020/12/11 00:35:07;;;;;;;14;11.03;;;3.5;99.9;;;;;;;;;
2020/12/11 00:35:12;;;;;;;14;11.03;;;3.5;99.9;;;;;;;;;
2020/12/11 00:35:27;;;;;;;14;11.03;;;3.5;99.9;;;;;;;;;
2020/12/11 00:35:48;;;;;;;14.03;10.83;;;3.4;99.9;;;;;;;;;
2020/12/11 00:35:53;;;;;;;14.03;10.83;;;3.4;99.9;;;;;;;;;
2020/12/11 00:36:02;;;;;;;14.03;10.83;;;3.4;99.9;;;;;;;;;
2020/12/11 00:36:08;;;;;;;14.03;10.83;;;3.4;99.9;;;;;;;;;
2020/12/11 00:36:14;;;;;;;14.03;10.83;;;3.4;99.9;;;;;;;;;
2020/12/11 00:36:29;;;;;;;14.03;10.83;;;3.4;99.9;;;;;;;;;
2020/12/11 00:36:40;;;;;;;13.57;10.53;;;3.4;99.9;;;;;;;;;
2020/12/11 00:36:54;;;;;;;13.57;10.53;;;3.4;99.9;;;;;;;;;
2020/12/11 00:37:01;;;;;;;13.57;10.53;;;3.4;99.9;;;;;;;;;
2020/12/11 00:37:05;;;;;;;13.57;10.53;;;3.4;99.9;;;;;;;;;
2020/12/11 00:37:15;;;;;;;13.57;10.53;;;3.4;99.9;;;;;;;;;
2020/12/11 00:37:25;;;;;;;13.57;10.53;;;3.4;99.9;;;;;;;;;
2020/12/11 00:37:41;;;;;;;14.5;10.6;;;3.4;99.9;;;;;;;;;
2020/12/11 00:38:01;;;;;;;14.5;10.6;;;3.4;99.9;;;;;;;;;
2020/12/11 00:38:02;;;;;;;14.5;10.6;;;3.4;99.9;;;;;;;;;
2020/12/11 00:38:06;;;;;;;14.5;10.6;;;3.4;99.9;;;;;;;;;
2020/12/11 00:38:16;;;;;;;14.5;10.6;;;3.4;99.9;;;;;;;;;
2020/12/11 00:38:29;;;;;;;14.5;10.6;;;3.4;99.9;;;;;;;;;
2020/12/11 00:38:42;;;;;;;13.8;10.5;;;3.5;99.9;;;;;;;;;
2020/12/11 00:38:52;;;;;;;13.8;10.5;;;3.5;99.9;;;;;;;;;
2020/12/11 00:39:02;;;;;;;13.8;10.5;;;3.5;99.9;;;;;;;;;
2020/12/11 00:39:08;;;;;;;13.8;10.5;;;3.5;99.9;;;;;;;;;
2020/12/11 00:39:13;;;;;;;13.8;10.5;;;3.5;99.9;;;;;;;;;
2020/12/11 00:39:28;;;;;;;13.8;10.5;;;3.5;99.9;;;;;;;;;
2020/12/11 00:39:38;;;;;;;13.8;10.5;;;3.5;99.9;;;;;;;;;
2020/12/11 00:39:54;;;;;;;15.33;12;;;3.6;99.9;;;;;;;;;
2020/12/11 00:40:01;;;;;;;15.33;12;;;3.6;99.9;;;;;;;;;
2020/12/11 00:40:14;;;;;;;15.33;12;;;3.6;99.9;;;;;;;;;
2020/12/11 00:40:14;;;;;;;15.33;12;;;3.6;99.9;;;;;;;;;
2020/12/11 00:40:30;;;;;;;15.33;12;;;3.6;99.9;;;;;;;;;
2020/12/11 00:40:40;;;;;;;15.33;12;;;3.6;99.9;;;;;;;;;
2020/12/11 00:40:55;;;;;;;13.5;10.17;;;3.7;99.9;;;;;;;;;
2020/12/11 00:41:02;;;;;;;13.5;10.17;;;3.7;99.9;;;;;;;;;
2020/12/11 00:41:05;;;;;;;13.5;10.17;;;3.7;99.9;;;;;;;;;
2020/12/11 00:41:16;;;;;;;13.5;10.17;;;3.7;99.9;;;;;;;;;
2020/12/11 00:41:26;;;;;;;13.5;10.17;;;3.7;99.9;;;;;;;;;
2020/12/11 00:41:41;;;;;;;14.07;10.73;;;3.7;99.9;;;;;;;;;
2020/12/11 00:41:51;;;;;;;14.07;10.73;;;3.7;99.9;;;;;;;;;
2020/12/11 00:42:01;;;;;;;14.07;10.73;;;3.7;99.9;;;;;;;;;
2020/12/11 00:42:07;;;;;;;14.07;10.73;;;3.7;99.9;;;;;;;;;
2020/12/11 00:42:12;;;;;;;14.07;10.73;;;3.7;99.9;;;;;;;;;
2020/12/11 00:42:27;;;;;;;14.07;10.73;;;3.7;99.9;;;;;;;;;
2020/12/11 00:42:43;;;;;;;16.53;11.67;;;3.7;99.9;;;;;;;;;
2020/12/11 00:42:53;;;;;;;16.53;11.67;;;3.7;99.9;;;;;;;;;
2020/12/11 00:43:02;;;;;;;16.53;11.67;;;3.7;99.9;;;;;;;;;
2020/12/11 00:43:08;;;;;;;16.53;11.67;;;3.7;99.9;;;;;;;;;
2020/12/11 00:43:13;;;;;;;16.53;11.67;;;3.7;99.9;;;;;;;;;
2020/12/11 00:43:29;;;;;;;16.53;11.67;;;3.7;99.9;;;;;;;;;
2020/12/11 00:43:39;;;;;;;16.53;11.67;;;3.7;99.9;;;;;;;;;
2020/12/11 00:43:54;;;;;;;13.17;11.27;;;3.5;99.9;;;;;;;;;
2020/12/11 00:44:02;;;;;;;13.17;11.27;;;3.5;99.9;;;;;;;;;
2020/12/11 00:44:05;;;;;;;13.17;11.27;;;3.5;99.9;;;;;;;;;
2020/12/11 00:44:15;;;;;;;13.17;11.27;;;3.5;99.9;;;;;;;;;
2020/12/11 00:44:30;;;;;;;13.17;11.27;;;3.5;99.9;;;;;;;;;
2020/12/11 00:44:40;;;;;;;13.17;11.27;;;3.5;99.9;;;;;;;;;
2020/12/11 00:44:56;;;;;;;14.63;11.17;;;3.6;99.9;;;;;;;;;
2020/12/11 00:45:02;;;;;;;14.63;11.17;;;3.6;99.9;;;;;;;;;
2020/12/11 00:45:06;;;;;;;14.63;11.17;;;3.6;99.9;;;;;;;;;
2020/12/11 00:45:16;;;;;;;14.63;11.17;;;3.6;99.9;;;;;;;;;
2020/12/11 00:45:27;;;;;;;14.63;11.17;;;3.6;99.9;;;;;;;;;
2020/12/11 00:45:42;;;;;;;14.63;10.47;;;3.6;99.9;;;;;;;;;
2020/12/11 00:45:52;;;;;;;14.63;10.47;;;3.6;99.9;;;;;;;;;
2020/12/11 00:46:02;;;;;;;14.63;10.47;;;3.6;99.9;;;;;;;;;
2020/12/11 00:46:08;;;;;;;14.63;10.47;;;3.6;99.9;;;;;;;;;
2020/12/11 00:46:13;;;;;;;14.63;10.47;;;3.6;99.9;;;;;;;;;
2020/12/11 00:46:28;;;;;;;14.63;10.47;;;3.6;99.9;;;;;;;;;
2020/12/11 00:46:43;;;;;;;15.87;12.47;;;3.6;99.9;;;;;;;;;
2020/12/11 00:46:55;;;;;;;15.87;12.47;;;3.6;99.9;;;;;;;;;
2020/12/11 00:47:01;;;;;;;15.87;12.47;;;3.6;99.9;;;;;;;;;
2020/12/11 00:47:09;;;;;;;15.87;12.47;;;3.6;99.9;;;;;;;;;
2020/12/11 00:47:14;;;;;;;15.87;12.47;;;3.6;99.9;;;;;;;;;
2020/12/11 00:47:29;;;;;;;15.87;12.47;;;3.6;99.9;;;;;;;;;
2020/12/11 00:47:40;;;;;;;15.87;12.47;;;3.6;99.9;;;;;;;;;
2020/12/11 00:47:55;;;;;;;13.9;10.47;;;3.6;99.9;;;;;;;;;
2020/12/11 00:48:02;;;;;;;13.9;10.47;;;3.6;99.9;;;;;;;;;
2020/12/11 00:48:05;;;;;;;13.9;10.47;;;3.6;99.9;;;;;;;;;
2020/12/11 00:48:15;;;;;;;13.9;10.47;;;3.6;99.9;;;;;;;;;
2020/12/11 00:48:26;;;;;;;13.9;10.47;;;3.6;99.9;;;;;;;;;
2020/12/11 00:48:41;;;;;;;13.9;10.47;;;3.6;99.9;;;;;;;;;
2020/12/11 00:48:57;;;;;;;17.3;12.43;;;3.6;99.9;;;;;;;;;
2020/12/11 00:49:02;;;;;;;17.3;12.43;;;3.6;99.9;;;;;;;;;
2020/12/11 00:49:07;;;;;;;17.3;12.43;;;3.6;99.9;;;;;;;;;
2020/12/11 00:49:12;;;;;;;17.3;12.43;;;3.6;99.9;;;;;;;;;
2020/12/11 00:49:27;;;;;;;17.3;12.43;;;3.6;99.9;;;;;;;;;
2020/12/11 00:49:42;;;;;;;17.3;12.43;;;3.6;99.9;;;;;;;;;
2020/12/11 00:49:53;;;;;;;14.67;11;;;3.6;99.9;;;;;;;;;
2020/12/11 00:50:02;;;;;;;14.67;11;;;3.6;99.9;;;;;;;;;
2020/12/11 00:50:08;;;;;;;14.67;11;;;3.6;99.9;;;;;;;;;
2020/12/11 00:50:13;;;;;;;14.67;11;;;3.6;99.9;;;;;;;;;
2020/12/11 00:50:29;;;;;;;14.67;11;;;3.6;99.9;;;;;;;;;
2020/12/11 00:50:39;;;;;;;14.67;11;;;3.6;99.9;;;;;;;;;
2020/12/11 00:50:54;;;;;;;17.27;11.83;;;3.7;99.9;;;;;;;;;
2020/12/11 00:51:02;;;;;;;17.27;11.83;;;3.7;99.9;;;;;;;;;
2020/12/11 00:51:10;;;;;;;17.27;11.83;;;3.7;99.9;;;;;;;;;
2020/12/11 00:51:15;;;;;;;17.27;11.83;;;3.7;99.9;;;;;;;;;
2020/12/11 00:51:25;;;;;;;17.27;11.83;;;3.7;99.9;;;;;;;;;
2020/12/11 00:51:40;;;;;;;17.27;11.83;;;3.7;99.9;;;;;;;;;
2020/12/11 00:51:56;;;;;;;15.1;11.47;;;3.7;99.9;;;;;;;;;
2020/12/11 00:52:01;;;;;;;15.1;11.47;;;3.7;99.9;;;;;;;;;
2020/12/11 00:52:06;;;;;;;15.1;11.47;;;3.7;99.9;;;;;;;;;
2020/12/11 00:52:16;;;;;;;15.1;11.47;;;3.7;99.9;;;;;;;;;
2020/12/11 00:52:26;;;;;;;15.1;11.47;;;3.7;99.9;;;;;;;;;
2020/12/11 00:52:42;;;;;;;15.1;11.47;;;3.7;99.9;;;;;;;;;
2020/12/11 00:52:52;;;;;;;15.07;11.5;;;3.7;99.9;;;;;;;;;
2020/12/11 00:53:02;;;;;;;15.07;11.5;;;3.7;99.9;;;;;;;;;
2020/12/11 00:53:07;;;;;;;15.07;11.5;;;3.7;99.9;;;;;;;;;
2020/12/11 00:53:13;;;;;;;15.07;11.5;;;3.7;99.9;;;;;;;;;
2020/12/11 00:53:28;;;;;;;15.07;11.5;;;3.7;99.9;;;;;;;;;
2020/12/11 00:53:38;;;;;;;15.07;11.5;;;3.7;99.9;;;;;;;;;
2020/12/11 00:53:53;;;;;;;15.47;11.37;;;3.7;99.9;;;;;;;;;
2020/12/11 00:54:02;;;;;;;15.47;11.37;;;3.7;99.9;;;;;;;;;
2020/12/11 00:54:09;;;;;;;15.47;11.37;;;3.7;99.9;;;;;;;;;
2020/12/11 00:54:14;;;;;;;15.47;11.37;;;3.7;99.9;;;;;;;;;
2020/12/11 00:54:29;;;;;;;15.47;11.37;;;3.7;99.9;;;;;;;;;
2020/12/11 00:54:40;;;;;;;15.47;11.37;;;3.7;99.9;;;;;;;;;
2020/12/11 00:54:55;;;;;;;17.43;13.23;;;3.7;99.9;;;;;;;;;
2020/12/11 00:55:01;;;;;;;17.43;13.23;;;3.7;99.9;;;;;;;;;
2020/12/11 00:55:05;;;;;;;17.43;13.23;;;3.7;99.9;;;;;;;;;
2020/12/11 00:55:16;;;;;;;17.43;13.23;;;3.7;99.9;;;;;;;;;
2020/12/11 00:55:26;;;;;;;17.43;13.23;;;3.7;99.9;;;;;;;;;
2020/12/11 00:55:41;;;;;;;17.43;13.23;;;3.7;99.9;;;;;;;;;
2020/12/11 00:55:52;;;;;;;16.77;11.33;;;3.7;99.9;;;;;;;;;
2020/12/11 00:56:02;;;;;;;16.77;11.33;;;3.7;99.9;;;;;;;;;
2020/12/11 00:56:07;;;;;;;16.77;11.33;;;3.7;99.9;;;;;;;;;
2020/12/11 00:56:17;;;;;;;16.77;11.33;;;3.7;99.9;;;;;;;;;
2020/12/11 00:56:27;;;;;;;16.77;11.33;;;3.7;99.9;;;;;;;;;
2020/12/11 00:56:43;;;;;;;16.77;11.33;;;3.7;99.9;;;;;;;;;
2020/12/11 00:56:53;;;;;;;16.83;12.43;;;3.7;99.9;;;;;;;;;
2020/12/11 00:57:01;;;;;;;16.83;12.43;;;3.7;99.9;;;;;;;;;
2020/12/11 00:57:08;;;;;;;16.83;12.43;;;3.7;99.9;;;;;;;;;
2020/12/11 00:57:13;;;;;;;16.83;12.43;;;3.7;99.9;;;;;;;;;
2020/12/11 00:57:29;;;;;;;16.83;12.43;;;3.7;99.9;;;;;;;;;
2020/12/11 00:57:39;;;;;;;16.83;12.43;;;3.7;99.9;;;;;;;;;
2020/12/11 00:57:54;;;;;;;17.47;13.7;;;3.7;99.9;;;;;;;;;
2020/12/11 00:58:02;;;;;;;17.47;13.7;;;3.7;99.9;;;;;;;;;
2020/12/11 00:58:04;;;;;;;17.47;13.7;;;3.7;99.9;;;;;;;;;
2020/12/11 00:58:15;;;;;;;17.47;13.7;;;3.7;99.9;;;;;;;;;
2020/12/11 00:58:30;;;;;;;17.47;13.7;;;3.7;99.9;;;;;;;;;
2020/12/11 00:58:40;;;;;;;17.47;13.7;;;3.7;99.9;;;;;;;;;
2020/12/11 00:58:56;;;;;;;16.87;11.87;;;3.6;99.9;;;;;;;;;
2020/12/11 00:59:02;;;;;;;16.87;11.87;;;3.6;99.9;;;;;;;;;
2020/12/11 00:59:06;;;;;;;16.87;11.87;;;3.6;99.9;;;;;;;;;
2020/12/11 00:59:16;;;;;;;16.87;11.87;;;3.6;99.9;;;;;;;;;
2020/12/11 00:59:26;;;;;;;16.87;11.87;;;3.6;99.9;;;;;;;;;
2020/12/11 00:59:42;;;;;;;16.87;11.87;;;3.6;99.9;;;;;;;;;
2020/12/11 00:59:52;;;;;;;18.07;11.57;;;3.5;99.9;;;;;;;;;
2020/12/11 01:00:02;;;;;;;18.07;11.57;;;3.5;99.9;;;;;;;;;
2020/12/11 01:00:07;;;;;;;18.07;11.57;;;3.5;99.9;;;;;;;;;
2020/12/11 01:00:12;;;;;;;18.07;11.57;;;3.5;99.9;;;;;;;;;
2020/12/11 01:00:28;;;;;;;18.07;11.57;;;3.5;99.9;;;;;;;;;
2020/12/11 01:00:43;;;;;;;18.07;11.57;;;3.5;99.9;;;;;;;;;
2020/12/11 01:00:53;;;;;;;15.93;11.63;;;3.5;99.9;;;;;;;;;
2020/12/11 01:01:02;;;;;;;15.93;11.63;;;3.5;99.9;;;;;;;;;
2020/12/11 01:01:09;;;;;;;15.93;11.63;;;3.5;99.9;;;;;;;;;
2020/12/11 01:01:14;;;;;;;15.93;11.63;;;3.5;99.9;;;;;;;;;
2020/12/11 01:01:29;;;;;;;15.93;11.63;;;3.5;99.9;;;;;;;;;
2020/12/11 01:01:39;;;;;;;15.93;11.63;;;3.5;99.9;;;;;;;;;
2020/12/11 01:01:55;;;;;;;16.1;11.87;;;3.5;99.9;;;;;;;;;
2020/12/11 01:02:02;;;;;;;16.1;11.87;;;3.5;99.9;;;;;;;;;
2020/12/11 01:02:05;;;;;;;16.1;11.87;;;3.5;99.9;;;;;;;;;
2020/12/11 01:02:15;;;;;;;16.1;11.87;;;3.5;99.9;;;;;;;;;
2020/12/11 01:02:25;;;;;;;16.1;11.87;;;3.5;99.9;;;;;;;;;
2020/12/11 01:02:41;;;;;;;16.1;11.87;;;3.5;99.9;;;;;;;;;
2020/12/11 01:02:56;;;;;;;17.1;12.3;;;3.5;99.9;;;;;;;;;
2020/12/11 01:03:02;;;;;;;17.1;12.3;;;3.5;99.9;;;;;;;;;
2020/12/11 01:03:06;;;;;;;17.1;12.3;;;3.5;99.9;;;;;;;;;
2020/12/11 01:03:17;;;;;;;17.1;12.3;;;3.5;99.9;;;;;;;;;
2020/12/11 01:03:27;;;;;;;17.1;12.3;;;3.5;99.9;;;;;;;;;
2020/12/11 01:03:47;;;;;;;16.57;11.97;;;3.5;99.9;;;;;;;;;
2020/12/11 01:03:52;;;;;;;16.57;11.97;;;3.5;99.9;;;;;;;;;
2020/12/11 01:04:01;;;;;;;16.57;11.97;;;3.5;99.9;;;;;;;;;
2020/12/11 01:04:08;;;;;;;16.57;11.97;;;3.5;99.9;;;;;;;;;
2020/12/11 01:04:13;;;;;;;16.57;11.97;;;3.5;99.9;;;;;;;;;
2020/12/11 01:04:28;;;;;;;16.57;11.97;;;3.5;99.9;;;;;;;;;
2020/12/11 01:04:38;;;;;;;16.57;11.97;;;3.5;99.9;;;;;;;;;
2020/12/11 01:04:54;;;;;;;14.53;11.23;;;3.4;99.9;;;;;;;;;
2020/12/11 01:05:02;;;;;;;14.53;11.23;;;3.4;99.9;;;;;;;;;
2020/12/11 01:05:09;;;;;;;14.53;11.23;;;3.4;99.9;;;;;;;;;
2020/12/11 01:05:14;;;;;;;14.53;11.23;;;3.4;99.9;;;;;;;;;
2020/12/11 01:05:30;;;;;;;14.53;11.23;;;3.4;99.9;;;;;;;;;
2020/12/11 01:05:40;;;;;;;14.53;11.23;;;3.4;99.9;;;;;;;;;
2020/12/11 01:06:01;;;;;;;14;10.9;;;3.5;99.9;;;;;;;;;
2020/12/11 01:06:02;;;;;;;14;10.9;;;3.5;99.9;;;;;;;;;
2020/12/11 01:06:06;;;;;;;14;10.9;;;3.5;99.9;;;;;;;;;
2020/12/11 01:06:16;;;;;;;14;10.9;;;3.5;99.9;;;;;;;;;
2020/12/11 01:06:26;;;;;;;14;10.9;;;3.5;99.9;;;;;;;;;
2020/12/11 01:06:41;;;;;;;14;10.9;;;3.5;99.9;;;;;;;;;
2020/12/11 01:06:52;;;;;;;22.4;11.6;;;3.5;99.9;;;;;;;;;
2020/12/11 01:07:02;;;;;;;22.4;11.6;;;3.5;99.9;;;;;;;;;
2020/12/11 01:07:07;;;;;;;22.4;11.6;;;3.5;99.9;;;;;;;;;
2020/12/11 01:07:12;;;;;;;22.4;11.6;;;3.5;99.9;;;;;;;;;
2020/12/11 01:07:28;;;;;;;22.4;11.6;;;3.5;99.9;;;;;;;;;
2020/12/11 01:07:43;;;;;;;22.4;11.6;;;3.5;99.9;;;;;;;;;
2020/12/11 01:07:53;;;;;;;16.47;12.2;;;3.3;99.9;;;;;;;;;
2020/12/11 01:08:02;;;;;;;16.47;12.2;;;3.3;99.9;;;;;;;;;
2020/12/11 01:08:14;;;;;;;16.47;12.2;;;3.3;99.9;;;;;;;;;
2020/12/11 01:08:14;;;;;;;16.47;12.2;;;3.3;99.9;;;;;;;;;
2020/12/11 01:08:29;;;;;;;16.47;12.2;;;3.3;99.9;;;;;;;;;
2020/12/11 01:08:39;;;;;;;16.47;12.2;;;3.3;99.9;;;;;;;;;
2020/12/11 01:08:55;;;;;;;16.33;11.43;;;3.3;99.9;;;;;;;;;
2020/12/11 01:09:02;;;;;;;16.33;11.43;;;3.3;99.9;;;;;;;;;
2020/12/11 01:09:05;;;;;;;16.33;11.43;;;3.3;99.9;;;;;;;;;
2020/12/11 01:09:15;;;;;;;16.33;11.43;;;3.3;99.9;;;;;;;;;
2020/12/11 01:09:25;;;;;;;16.33;11.43;;;3.3;99.9;;;;;;;;;
2020/12/11 01:09:41;;;;;;;16.33;11.43;;;3.3;99.9;;;;;;;;;
2020/12/11 01:09:56;;;;;;;16;11.9;;;3.4;99.9;;;;;;;;;
2020/12/11 01:10:02;;;;;;;16;11.9;;;3.4;99.9;;;;;;;;;
2020/12/11 01:10:06;;;;;;;16;11.9;;;3.4;99.9;;;;;;;;;
2020/12/11 01:10:17;;;;;;;16;11.9;;;3.4;99.9;;;;;;;;;
2020/12/11 01:10:27;;;;;;;16;11.9;;;3.4;99.9;;;;;;;;;
2020/12/11 01:10:42;;;;;;;16;11.9;;;3.4;99.9;;;;;;;;;
2020/12/11 01:10:52;;;;;;;16.67;12.4;;;3.4;99.9;;;;;;;;;
2020/12/11 01:11:02;;;;;;;16.67;12.4;;;3.4;99.9;;;;;;;;;
2020/12/11 01:11:08;;;;;;;16.67;12.4;;;3.4;99.9;;;;;;;;;
2020/12/11 01:11:13;;;;;;;16.67;12.4;;;3.4;99.9;;;;;;;;;
2020/12/11 01:11:28;;;;;;;16.67;12.4;;;3.4;99.9;;;;;;;;;
2020/12/11 01:11:38;;;;;;;16.67;12.4;;;3.4;99.9;;;;;;;;;
2020/12/11 01:11:54;;;;;;;16.2;11.67;;;3.5;99.9;;;;;;;;;
2020/12/11 01:12:01;;;;;;;16.2;11.67;;;3.5;99.9;;;;;;;;;
2020/12/11 01:12:09;;;;;;;16.2;11.67;;;3.5;99.9;;;;;;;;;
2020/12/11 01:12:14;;;;;;;16.2;11.67;;;3.5;99.9;;;;;;;;;
2020/12/11 01:12:30;;;;;;;16.2;11.67;;;3.5;99.9;;;;;;;;;
2020/12/11 01:12:40;;;;;;;16.2;11.67;;;3.5;99.9;;;;;;;;;
2020/12/11 01:12:55;;;;;;;16.2;10.97;;;3.5;99.9;;;;;;;;;
2020/12/11 01:13:02;;;;;;;16.2;10.97;;;3.5;99.9;;;;;;;;;
2020/12/11 01:13:05;;;;;;;16.2;10.97;;;3.5;99.9;;;;;;;;;
2020/12/11 01:13:16;;;;;;;16.2;10.97;;;3.5;99.9;;;;;;;;;
2020/12/11 01:13:26;;;;;;;16.2;10.97;;;3.5;99.9;;;;;;;;;
2020/12/11 01:13:41;;;;;;;16.2;10.97;;;3.5;99.9;;;;;;;;;
2020/12/11 01:13:51;;;;;;;14.97;11.73;;;3.5;99.9;;;;;;;;;
2020/12/11 01:14:01;;;;;;;14.97;11.73;;;3.5;99.9;;;;;;;;;
2020/12/11 01:14:07;;;;;;;14.97;11.73;;;3.5;99.9;;;;;;;;;
2020/12/11 01:14:12;;;;;;;14.97;11.73;;;3.5;99.9;;;;;;;;;
2020/12/11 01:14:27;;;;;;;14.97;11.73;;;3.5;99.9;;;;;;;;;
2020/12/11 01:14:43;;;;;;;14.97;11.73;;;3.5;99.9;;;;;;;;;
2020/12/11 01:14:53;;;;;;;16.87;11.57;;;3.5;99.9;;;;;;;;;
2020/12/11 01:15:02;;;;;;;16.87;11.57;;;3.5;99.9;;;;;;;;;